Time;durP1;ratioP1;P1;durP2;ratioP2;P2;SDS_P1;SDS_P2;PMS_P1;PMS_P2;Temp;Humidity;BMP_temperature;BMP_pressure;BME280_temperature;BME280_humidity;BME280_pressure;Samples;Min_cycle;Max_cycle;Signal;HPM_P1;HPM_P2
2022/05/18 00:00:03;;;;;;;5.00;3.63;;;;;;;20.66;52.79;99104.00;5032688;28;20136;-73
2022/05/18 00:02:29;;;;;;;4.22;3.55;;;;;;;20.79;52.54;99108.00;5034295;28;20087;-73
2022/05/18 00:04:54;;;;;;;4.93;3.38;;;;;;;20.47;53.53;99103.25;5030635;28;20471;-73
2022/05/18 00:07:20;;;;;;;6.57;3.72;;;;;;;20.72;52.87;99091.78;5032521;28;20045;-73
2022/05/18 00:09:45;;;;;;;4.93;3.97;;;;;;;20.74;52.92;99082.84;5034126;28;20144;-73
2022/05/18 00:12:11;;;;;;;4.72;3.75;;;;;;;20.77;52.88;99076.34;5032719;28;20084;-73
2022/05/18 00:14:37;;;;;;;5.70;4.15;;;;;;;20.95;52.42;99075.44;5028345;28;20061;-73
2022/05/18 00:17:04;;;;;;;4.63;3.90;;;;;;;20.94;52.43;99073.84;5013953;28;20045;-73
2022/05/18 00:19:31;;;;;;;5.88;3.20;;;;;;;20.87;52.61;99066.94;5022996;28;20484;-73
2022/05/18 00:21:57;;;;;;;3.35;3.05;;;;;;;20.75;52.55;99068.22;5033577;28;20034;-73
2022/05/18 00:24:22;;;;;;;4.60;4.20;;;;;;;20.88;52.48;99079.97;5032522;28;20385;-73
2022/05/18 00:26:48;;;;;;;5.97;4.25;;;;;;;20.69;52.94;99071.91;5033829;28;20033;-73
2022/05/18 00:29:14;;;;;;;4.03;3.60;;;;;;;20.34;53.88;99080.19;5033875;28;20468;-73
2022/05/18 00:31:41;;;;;;;4.15;3.13;;;;;;;20.41;53.66;99085.81;5027517;28;20410;-73
2022/05/18 00:34:07;;;;;;;7.20;4.28;;;;;;;20.27;54.13;99085.88;5014082;28;20029;-73
2022/05/18 00:36:33;;;;;;;5.00;3.72;;;;;;;20.22;54.29;99072.91;5017597;28;20389;-73
2022/05/18 00:38:58;;;;;;;3.85;3.50;;;;;;;20.24;54.35;99064.78;5013943;28;20089;-73
2022/05/18 00:41:24;;;;;;;4.03;3.58;;;;;;;20.22;54.58;99072.13;5013672;28;20026;-73
2022/05/18 00:43:51;;;;;;;5.82;3.85;;;;;;;20.12;54.97;99083.09;5012272;28;20475;-73
2022/05/18 00:46:17;;;;;;;4.30;3.50;;;;;;;20.31;54.58;99076.13;5023278;28;20476;-73
2022/05/18 00:48:43;;;;;;;3.63;3.33;;;;;;;20.09;55.17;99071.75;5030096;28;20033;-74
2022/05/18 00:51:34;;;;;;;6.65;3.97;;;;;;;20.08;55.23;99073.75;5026486;28;20029;-73
2022/05/18 00:54:11;;;;;;;5.28;3.75;;;;;;;19.95;55.83;99066.91;5027584;28;20022;-73
2022/05/18 00:56:42;;;;;;;5.75;3.63;;;;;;;19.93;56.09;99073.00;5032233;28;20502;-73
2022/05/18 00:59:20;;;;;;;5.32;3.95;;;;;;;19.93;56.98;99064.50;5033109;28;20497;-72
2022/05/18 01:01:48;;;;;;;7.72;3.97;;;;;;;19.92;57.61;99068.53;5032955;28;20041;-73
2022/05/18 01:04:15;;;;;;;8.05;4.57;;;;;;;19.80;58.06;99061.25;5032285;28;20485;-73
2022/05/18 01:06:48;;;;;;;3.92;3.63;;;;;;;19.68;58.34;99056.81;5029888;28;20037;-72
2022/05/18 01:09:39;;;;;;;6.50;4.10;;;;;;;19.69;58.54;99061.28;5032879;28;20044;-73
2022/05/18 01:12:06;;;;;;;8.48;5.80;;;;;;;19.67;58.59;99055.19;5032835;28;20382;-73
2022/05/18 01:14:43;;;;;;;5.90;4.38;;;;;;;19.71;58.78;99049.50;5032311;28;20481;-73
2022/05/18 01:17:11;;;;;;;4.78;4.25;;;;;;;19.69;58.83;99046.25;5031434;28;20029;-73
2022/05/18 01:19:46;;;;;;;69.72;56.45;;;;;;;19.49;58.66;99027.66;5032609;28;20044;-73
2022/05/18 01:22:23;;;;;;;114.68;97.50;;;;;;;19.62;59.04;99047.09;5024848;28;20038;-73
2022/05/18 01:25:05;;;;;;;61.35;53.92;;;;;;;19.63;59.08;99049.53;5028844;28;20503;-73
2022/05/18 01:27:31;;;;;;;9.00;7.30;;;;;;;19.80;58.57;99049.09;5024393;28;20065;-73
2022/05/18 01:29:57;;;;;;;6.97;4.53;;;;;;;19.83;58.37;99059.63;5021943;28;20037;-73
2022/05/18 01:32:23;;;;;;;11.13;4.25;;;;;;;19.85;57.74;99058.00;5013081;28;20025;-73
2022/05/18 01:34:49;;;;;;;7.03;3.95;;;;;;;20.14;56.96;99054.28;5012380;28;20382;-73
2022/05/18 01:37:15;;;;;;;5.03;4.40;;;;;;;20.18;57.30;99057.94;5013368;28;20022;-73
2022/05/18 01:39:52;;;;;;;6.97;4.45;;;;;;;20.23;57.13;99053.88;5011487;28;20030;-74
2022/05/18 01:42:31;;;;;;;5.07;4.15;;;;;;;20.11;57.79;99055.13;5012656;28;20036;-73
2022/05/18 01:44:57;;;;;;;4.50;4.00;;;;;;;20.11;58.30;99040.91;5012485;28;20072;-73
2022/05/18 01:47:23;;;;;;;7.72;4.50;;;;;;;20.10;58.14;99037.28;5032290;28;20049;-73
2022/05/18 01:49:51;;;;;;;7.72;5.60;;;;;;;20.06;58.17;99048.66;5030465;28;20026;-73
2022/05/18 01:52:17;;;;;;;8.15;4.95;;;;;;;20.01;58.16;99034.84;5032247;28;20384;-73
2022/05/18 01:54:46;;;;;;;12.00;5.43;;;;;;;19.80;59.08;99029.25;5032067;28;20029;-73
2022/05/18 01:57:13;;;;;;;12.27;4.87;;;;;;;19.86;58.62;99027.59;5027045;28;20104;-73
2022/05/18 01:59:40;;;;;;;7.88;5.38;;;;;;;19.74;58.97;99026.00;5026455;28;20053;-73
2022/05/18 02:02:07;;;;;;;6.57;4.68;;;;;;;19.70;59.28;99034.53;5012695;28;20041;-73
2022/05/18 02:04:34;;;;;;;6.25;4.85;;;;;;;19.89;58.64;99035.28;5026560;28;20029;-73
2022/05/18 02:07:01;;;;;;;6.10;4.80;;;;;;;19.59;59.38;99028.06;5019148;28;20030;-73
2022/05/18 02:09:27;;;;;;;5.85;4.43;;;;;;;19.64;58.85;99030.47;5010981;28;20152;-73
2022/05/18 02:11:53;;;;;;;5.15;4.60;;;;;;;19.76;58.63;99032.06;5012091;28;20070;-73
2022/05/18 02:14:19;;;;;;;6.85;5.75;;;;;;;19.68;58.92;99028.44;5018354;28;20473;-73
2022/05/18 02:16:45;;;;;;;5.03;4.63;;;;;;;19.74;58.81;99032.47;5031041;28;20422;-73
2022/05/18 02:19:10;;;;;;;5.47;4.82;;;;;;;19.73;59.32;99028.03;5031769;28;20025;-73
2022/05/18 02:21:36;;;;;;;7.38;5.38;;;;;;;19.57;59.23;99027.66;5030342;28;20025;-73
2022/05/18 02:24:02;;;;;;;9.98;5.38;;;;;;;19.48;59.75;99037.38;5031671;28;20029;-73
2022/05/18 02:26:27;;;;;;;9.57;4.88;;;;;;;19.46;59.80;99039.00;5031757;28;20404;-73
2022/05/18 02:28:53;;;;;;;11.07;6.45;;;;;;;19.38;60.07;99037.41;5031029;28;20524;-73
2022/05/18 02:31:18;;;;;;;5.70;5.00;;;;;;;19.13;60.62;99044.66;5026837;28;20040;-73
2022/05/18 02:33:44;;;;;;;6.07;4.93;;;;;;;19.06;60.90;99047.50;5030233;28;20083;-73
2022/05/18 02:36:11;;;;;;;9.90;5.45;;;;;;;18.77;61.65;99045.41;5030683;28;20049;-73
2022/05/18 02:38:37;;;;;;;6.32;4.85;;;;;;;18.40;63.12;99051.38;5028486;28;20033;-72
2022/05/18 02:41:03;;;;;;;6.82;5.38;;;;;;;18.18;64.21;99054.09;5011631;28;20547;-72
2022/05/18 02:43:30;;;;;;;10.15;6.05;;;;;;;18.00;65.30;99060.47;5023019;28;20068;-73
2022/05/18 02:46:11;;;;;;;8.60;5.72;;;;;;;17.86;65.38;99064.00;5031491;28;20037;-73
2022/05/18 02:48:37;;;;;;;8.82;5.80;;;;;;;17.74;65.78;99058.69;5029924;28;20033;-73
2022/05/18 02:51:04;;;;;;;9.18;5.47;;;;;;;17.75;65.94;99066.78;5031246;28;20104;-73
2022/05/18 02:53:30;;;;;;;11.45;5.97;;;;;;;17.75;65.78;99055.47;5031201;28;20500;-74
2022/05/18 02:56:08;;;;;;;7.03;5.40;;;;;;;17.76;65.88;99065.56;5028227;28;20033;-73
2022/05/18 02:58:50;;;;;;;7.10;5.15;;;;;;;17.67;66.08;99065.09;5030377;28;20424;-73
2022/05/18 03:01:21;;;;;;;7.28;5.90;;;;;;;17.56;66.39;99075.53;5029920;28;20025;-73
2022/05/18 03:03:48;;;;;;;7.32;5.57;;;;;;;17.46;66.69;99071.41;5026281;28;20026;-73
2022/05/18 03:06:15;;;;;;;6.20;5.50;;;;;;;17.48;67.00;99066.97;5027961;28;20393;-73
2022/05/18 03:08:43;;;;;;;6.95;5.80;;;;;;;17.71;66.24;99065.13;5029629;28;20025;-73
2022/05/18 03:11:10;;;;;;;7.25;5.78;;;;;;;17.73;65.76;99063.50;5029548;28;20057;-73
2022/05/18 03:13:36;;;;;;;9.00;5.45;;;;;;;17.77;65.53;99064.38;5018384;28;20031;-73
2022/05/18 03:16:02;;;;;;;5.70;5.10;;;;;;;17.68;65.76;99066.72;5011528;28;20531;-72
2022/05/18 03:18:28;;;;;;;6.45;5.80;;;;;;;17.54;66.20;99062.59;5023676;28;20030;-73
2022/05/18 03:23:38;;;;;;;6.45;5.28;;;;;;;17.73;65.45;99069.16;5014967;28;20125;-73
2022/05/18 03:26:08;;;;;;;6.95;4.80;;;;;;;17.98;64.89;99079.03;5017988;28;20496;-73
2022/05/18 03:28:35;;;;;;;6.22;4.80;;;;;;;18.19;63.91;99070.69;5027412;28;20105;-73
2022/05/18 03:31:01;;;;;;;7.88;5.90;;;;;;;18.35;63.09;99072.38;5022906;28;20025;-73
2022/05/18 03:33:26;;;;;;;9.52;5.72;;;;;;;18.37;63.01;99082.09;5020611;28;20033;-73
2022/05/18 03:35:53;;;;;;;6.72;5.78;;;;;;;18.37;62.88;99090.59;5013779;28;20026;-73
2022/05/18 03:38:20;;;;;;;7.53;6.07;;;;;;;18.41;62.93;99086.97;5014734;28;20079;-74
2022/05/18 03:40:46;;;;;;;5.90;4.63;;;;;;;18.42;62.62;99082.91;5023411;28;20041;-73
2022/05/18 03:43:12;;;;;;;8.57;5.72;;;;;;;18.36;63.22;99094.63;5032075;28;20029;-73
2022/05/18 03:45:38;;;;;;;6.88;5.45;;;;;;;18.28;63.45;99098.63;5033190;28;20082;-73
2022/05/18 03:48:06;;;;;;;7.20;5.30;;;;;;;18.22;63.72;99098.19;5034413;28;20058;-73
2022/05/18 03:50:32;;;;;;;8.77;5.30;;;;;;;18.31;63.60;99092.16;5022967;28;20083;-73
2022/05/18 03:53:00;;;;;;;8.77;4.75;;;;;;;18.27;63.52;99102.66;5028195;28;20025;-73
2022/05/18 03:55:26;;;;;;;7.35;6.13;;;;;;;18.09;64.09;99117.53;5027075;28;20547;-73
2022/05/18 03:57:52;;;;;;;8.00;5.38;;;;;;;18.27;63.68;99121.66;5032213;28;20029;-73
2022/05/18 04:00:18;;;;;;;9.70;5.97;;;;;;;18.35;63.06;99114.84;5032779;28;20416;-73
2022/05/18 04:02:44;;;;;;;12.82;7.97;;;;;;;18.15;63.95;99117.16;5034064;28;20087;-73
2022/05/18 04:05:12;;;;;;;13.57;7.65;;;;;;;18.29;63.64;99122.09;5033222;28;20029;-73
2022/05/18 04:07:38;;;;;;;6.15;5.55;;;;;;;18.19;63.94;99115.97;5033986;28;20021;-73
2022/05/18 04:10:06;;;;;;;6.55;5.78;;;;;;;18.35;63.73;99112.84;5033622;28;20488;-73
2022/05/18 04:12:31;;;;;;;6.45;5.50;;;;;;;18.43;63.27;99112.84;5032749;28;20022;-73
2022/05/18 04:14:57;;;;;;;6.68;5.18;;;;;;;18.58;62.89;99120.22;5028758;28;20064;-73
2022/05/18 04:23:15;;;;;;;9.52;5.15;;;;;;;18.69;63.02;99142.09;5029265;28;20442;-72
2022/05/18 04:25:41;;;;;;;5.57;5.07;;;;;;;18.88;62.52;99138.09;5032034;28;20037;-73
2022/05/18 04:28:09;;;;;;;7.30;4.90;;;;;;;19.12;61.50;99132.94;5031399;28;20461;-73
2022/05/18 04:30:35;;;;;;;5.40;4.90;;;;;;;19.22;61.03;99132.16;5033270;28;20040;-73
2022/05/18 04:33:01;;;;;;;14.27;5.75;;;;;;;19.48;59.98;99139.47;5030395;28;20479;-72
2022/05/18 04:35:29;;;;;;;5.28;4.55;;;;;;;19.49;58.63;99137.47;5031483;28;20068;-70
2022/05/18 04:37:55;;;;;;;5.22;4.75;;;;;;;19.53;58.43;99138.25;5032582;28;20120;-70
2022/05/18 04:40:21;;;;;;;9.68;5.10;;;;;;;19.62;57.71;99149.19;5032045;28;20021;-69
2022/05/18 04:42:47;;;;;;;6.38;4.60;;;;;;;19.66;58.22;99152.03;5032367;28;20538;-70
2022/05/18 04:45:15;;;;;;;5.70;4.80;;;;;;;19.82;58.35;99158.13;5033502;28;20028;-71
2022/05/18 04:47:41;;;;;;;5.63;4.75;;;;;;;19.78;57.93;99160.94;5031945;28;20029;-72
2022/05/18 04:50:07;;;;;;;4.82;4.32;;;;;;;19.87;57.03;99160.56;5033574;28;20031;-70
2022/05/18 04:52:33;;;;;;;5.25;4.78;;;;;;;19.92;56.65;99145.97;5043762;28;20060;-72
2022/05/18 04:54:59;;;;;;;5.47;4.43;;;;;;;19.88;57.20;99165.00;5030120;28;20053;-72
2022/05/18 04:57:24;;;;;;;10.68;5.47;;;;;;;19.83;56.54;99153.25;5031609;28;20033;-71
2022/05/18 04:59:50;;;;;;;7.30;5.15;;;;;;;19.92;56.55;99145.97;5033301;28;20445;-72
2022/05/18 05:02:17;;;;;;;9.50;5.30;;;;;;;20.02;56.00;99140.69;5033139;28;20436;-70
2022/05/18 05:04:42;;;;;;;6.72;5.90;;;;;;;20.05;57.00;99157.72;5030449;28;20100;-71
2022/05/18 05:07:08;;;;;;;5.55;4.63;;;;;;;20.16;56.49;99156.91;5023115;28;20167;-69
2022/05/18 05:09:34;;;;;;;6.40;5.43;;;;;;;19.83;57.28;99159.72;5032841;28;20397;-70
2022/05/18 05:12:00;;;;;;;7.57;5.72;;;;;;;19.65;57.68;99159.72;5032865;28;20463;-73
2022/05/18 05:14:27;;;;;;;8.02;5.05;;;;;;;19.57;58.01;99164.59;5031770;28;20022;-71
2022/05/18 05:16:52;;;;;;;15.82;6.20;;;;;;;19.61;57.69;99164.59;5032392;28;20037;-71
2022/05/18 05:19:18;;;;;;;8.75;6.50;;;;;;;19.82;57.36;99168.66;5031480;28;20027;-71
2022/05/18 05:21:44;;;;;;;12.00;6.03;;;;;;;19.98;57.56;99171.91;5039835;28;20544;-72
2022/05/18 05:24:15;;;;;;;12.57;5.20;;;;;;;19.99;57.49;99172.75;5052585;28;20438;-72
2022/05/18 05:26:41;;;;;;;9.95;5.40;;;;;;;20.05;57.40;99179.63;5042245;28;20545;-72
2022/05/18 05:29:08;;;;;;;9.20;5.25;;;;;;;20.15;57.26;99166.63;5031859;28;20030;-75
2022/05/18 05:31:34;;;;;;;8.18;5.63;;;;;;;20.44;57.11;99175.09;5026490;28;20057;-73
2022/05/18 05:34:00;;;;;;;6.18;5.47;;;;;;;20.77;55.94;99175.81;5029996;28;20475;-74
2022/05/18 05:36:26;;;;;;;7.05;4.40;;;;;;;21.01;55.22;99178.97;5032342;28;20025;-74
2022/05/18 05:38:51;;;;;;;6.60;4.65;;;;;;;21.17;54.47;99169.94;5026201;28;20481;-74
2022/05/18 05:41:17;;;;;;;9.45;5.10;;;;;;;21.43;54.11;99164.91;5012980;28;20026;-74
2022/05/18 05:43:43;;;;;;;8.38;5.07;;;;;;;21.58;53.86;99157.88;5015962;28;20049;-74
2022/05/18 05:46:13;;;;;;;9.00;5.28;;;;;;;21.42;53.95;99161.25;5014209;28;20018;-74
2022/05/18 05:48:40;;;;;;;7.18;4.95;;;;;;;21.16;53.35;99163.44;5018796;28;20038;-74
2022/05/18 05:51:11;;;;;;;11.85;5.07;;;;;;;20.95;54.73;99160.72;5035167;28;20029;-74
2022/05/18 05:53:39;;;;;;;10.65;4.97;;;;;;;21.09;54.53;99172.00;5038975;28;20029;-75
2022/05/18 05:56:06;;;;;;;10.20;5.15;;;;;;;21.13;54.80;99184.19;5030268;28;20025;-74
2022/05/18 05:58:33;;;;;;;20.20;5.72;;;;;;;21.33;53.92;99169.44;5030751;28;20447;-73
2022/05/18 06:01:00;;;;;;;12.75;5.07;;;;;;;21.72;53.48;99182.63;5017478;28;20021;-74
2022/05/18 06:03:26;;;;;;;11.68;5.07;;;;;;;21.74;52.12;99177.31;5014099;28;20030;-73
2022/05/18 06:05:52;;;;;;;7.68;5.63;;;;;;;21.91;52.86;99177.56;5029355;28;20048;-75
2022/05/18 06:08:18;;;;;;;7.15;4.95;;;;;;;22.24;52.14;99174.41;5035927;28;20037;-73
2022/05/18 06:10:44;;;;;;;10.75;5.20;;;;;;;22.18;52.29;99174.06;5031404;28;20551;-72
2022/05/18 06:13:11;;;;;;;7.38;5.15;;;;;;;22.21;51.50;99181.78;5031256;28;20108;-73
2022/05/18 06:15:37;;;;;;;7.35;5.65;;;;;;;21.96;52.19;99179.97;5031633;28;20044;-73
2022/05/18 06:18:03;;;;;;;11.38;5.32;;;;;;;21.93;52.38;99185.69;5029730;28;20033;-74
2022/05/18 06:20:29;;;;;;;11.43;5.88;;;;;;;21.79;53.28;99195.16;5031569;28;20057;-75
2022/05/18 06:22:57;;;;;;;6.70;5.00;;;;;;;21.77;52.13;99192.72;5050833;28;20116;-72
2022/05/18 06:25:23;;;;;;;8.82;5.72;;;;;;;22.05;52.34;99198.59;5034159;28;20036;-74
2022/05/18 06:27:48;;;;;;;11.13;5.93;;;;;;;21.95;51.09;99200.31;5035729;28;20108;-75
2022/05/18 06:30:15;;;;;;;10.82;5.15;;;;;;;21.72;51.43;99190.34;5013832;28;20034;-73
2022/05/18 06:32:41;;;;;;;7.45;5.72;;;;;;;21.60;51.56;99200.97;5031798;28;20099;-76
2022/05/18 06:35:07;;;;;;;6.63;5.65;;;;;;;21.50;51.76;99201.03;5026321;28;20069;-73
2022/05/18 06:37:33;;;;;;;6.05;5.45;;;;;;;21.50;51.42;99201.03;5037656;28;20032;-75
2022/05/18 06:39:59;;;;;;;8.48;4.88;;;;;;;21.55;52.18;99200.59;5031578;28;20489;-74
2022/05/18 06:42:24;;;;;;;7.90;5.15;;;;;;;21.36;52.51;99199.91;5029267;28;20029;-79
2022/05/18 06:44:50;;;;;;;11.43;5.72;;;;;;;21.24;53.10;99197.53;5030024;28;20471;-75
2022/05/18 06:47:16;;;;;;;17.48;7.03;;;;;;;21.09;53.13;99200.44;5031470;28;20045;-77
2022/05/18 06:49:42;;;;;;;15.32;7.38;;;;;;;21.11;53.84;99206.53;5031715;28;20037;-75
2022/05/18 06:52:09;;;;;;;13.30;5.63;;;;;;;21.17;53.63;99199.19;5031248;28;20399;-78
2022/05/18 06:54:36;;;;;;;9.23;5.65;;;;;;;21.17;53.02;99204.06;5028022;28;20022;-72
2022/05/18 06:57:02;;;;;;;17.10;6.68;;;;;;;21.12;52.58;99205.31;5035183;28;20033;-78
2022/05/18 06:59:28;;;;;;;8.07;6.18;;;;;;;21.00;53.53;99203.75;5034824;28;20392;-79
2022/05/18 07:01:53;;;;;;;6.30;5.70;;;;;;;21.06;53.74;99209.81;5020780;28;20041;-84
2022/05/18 07:04:19;;;;;;;11.40;5.97;;;;;;;21.00;53.20;99209.41;5021527;28;20045;-80
2022/05/18 07:06:45;;;;;;;12.45;6.53;;;;;;;20.98;53.92;99211.06;5029372;28;20101;-81
2022/05/18 07:09:14;;;;;;;10.77;6.38;;;;;;;20.81;54.65;99219.25;5024670;28;20021;-77
2022/05/18 07:11:41;;;;;;;7.03;6.22;;;;;;;20.73;54.86;99214.75;5034695;28;20091;-73
2022/05/18 07:14:07;;;;;;;7.63;6.65;;;;;;;20.72;55.35;99218.84;5035036;28;20022;-74
2022/05/18 07:16:34;;;;;;;9.27;6.63;;;;;;;20.72;55.62;99218.84;5035350;28;20044;-74
2022/05/18 07:19:00;;;;;;;9.30;6.35;;;;;;;20.60;55.88;99218.06;5030702;28;20030;-72
2022/05/18 07:21:27;;;;;;;14.10;6.50;;;;;;;20.67;55.85;99227.78;5032073;28;20049;-74
2022/05/18 07:23:53;;;;;;;7.70;6.50;;;;;;;20.72;56.61;99225.34;5034239;28;20079;-73
2022/05/18 07:26:20;;;;;;;9.90;6.85;;;;;;;20.72;56.82;99228.19;5027862;28;20029;-74
2022/05/18 07:28:46;;;;;;;9.82;6.93;;;;;;;20.65;56.88;99227.41;5027894;28;20037;-71
2022/05/18 07:31:13;;;;;;;10.43;6.82;;;;;;;20.65;56.73;99235.91;5020104;28;20439;-74
2022/05/18 07:33:38;;;;;;;9.00;6.95;;;;;;;20.71;57.40;99231.41;5032574;28;20029;-74
2022/05/18 07:36:05;;;;;;;11.68;7.35;;;;;;;20.67;57.65;99239.94;5031645;28;20052;-73
2022/05/18 07:38:31;;;;;;;12.27;7.95;;;;;;;20.70;57.70;99242.00;5033633;28;20056;-73
2022/05/18 07:40:58;;;;;;;15.05;8.05;;;;;;;20.73;58.20;99257.41;5033435;28;20116;-77
2022/05/18 07:43:23;;;;;;;14.45;9.55;;;;;;;20.61;57.58;99248.09;5030228;28;20500;-70
2022/05/18 07:45:51;;;;;;;17.58;11.63;;;;;;;20.56;58.36;99242.84;5033114;28;20053;-72
2022/05/18 07:48:18;;;;;;;13.18;10.25;;;;;;;20.66;58.50;99252.53;5030506;28;20469;-71
2022/05/18 07:50:45;;;;;;;29.45;8.57;;;;;;;20.66;58.33;99251.75;5013543;28;20032;-71
2022/05/18 07:53:12;;;;;;;15.43;9.00;;;;;;;20.54;56.74;99259.47;5020602;28;20482;-70
2022/05/18 07:55:38;;;;;;;12.25;8.10;;;;;;;20.44;56.85;99260.31;5032483;28;20120;-70
2022/05/18 07:58:10;;;;;;;9.75;7.60;;;;;;;20.45;58.57;99268.44;5033472;28;20033;-70
2022/05/18 08:00:36;;;;;;;15.15;10.30;;;;;;;20.37;57.90;99268.81;5032706;28;20419;-70
2022/05/18 08:03:02;;;;;;;9.95;8.18;;;;;;;20.33;58.70;99275.31;5030009;28;20029;-71
2022/05/18 08:05:30;;;;;;;9.10;8.18;;;;;;;20.24;59.01;99271.28;5027583;28;20030;-71
2022/05/18 08:07:57;;;;;;;13.98;9.70;;;;;;;20.25;59.65;99276.53;5033021;28;20130;-71
2022/05/18 08:15:55;;;;;;;14.98;10.43;;;;;;;20.14;61.35;99295.59;5033627;28;20091;-71
2022/05/18 08:18:21;;;;;;;12.98;9.70;;;;;;;19.88;62.98;99287.03;5031885;28;20391;-76
2022/05/18 08:20:48;;;;;;;16.45;11.00;;;;;;;19.83;65.34;99289.47;5030280;28;20116;-73
2022/05/18 08:23:14;;;;;;;13.65;10.23;;;;;;;19.80;66.40;99295.94;5025885;28;20046;-72
2022/05/18 08:25:43;;;;;;;12.88;10.05;;;;;;;19.64;65.87;99302.78;5031276;28;20099;-70
2022/05/18 08:28:08;;;;;;;11.38;10.00;;;;;;;19.68;67.75;99311.31;5025530;28;20399;-74
2022/05/18 08:30:34;;;;;;;25.15;11.95;;;;;;;19.60;68.66;99316.16;5017784;28;20044;-71
2022/05/18 08:33:01;;;;;;;18.08;11.75;;;;;;;19.49;68.69;99319.75;5029770;28;20030;-71
2022/05/18 08:35:28;;;;;;;16.25;10.85;;;;;;;19.53;69.69;99318.97;5031448;28;20025;-71
2022/05/18 08:37:55;;;;;;;11.50;10.13;;;;;;;19.61;69.87;99324.28;5032246;28;20031;-73
2022/05/18 08:40:30;;;;;;;13.73;11.45;;;;;;;19.56;69.62;99326.69;5032421;28;20427;-71
2022/05/18 08:42:57;;;;;;;18.02;10.77;;;;;;;19.50;69.85;99318.56;5024582;28;20056;-72
2022/05/18 08:45:29;;;;;;;12.38;10.98;;;;;;;19.52;72.47;99331.53;5021057;28;20037;-72
2022/05/18 08:48:06;;;;;;;16.77;11.63;;;;;;;19.44;72.65;99330.69;5029026;28;20083;-74
2022/05/18 08:50:33;;;;;;;18.45;11.80;;;;;;;19.36;73.23;99329.84;5022528;28;20033;-73
2022/05/18 08:53:48;;;;;;;11.57;10.27;;;;;;;19.32;72.70;99331.88;5026334;28;20040;-74
2022/05/18 08:56:24;;;;;;;11.52;9.27;;;;;;;19.14;71.96;99329.75;4994978;28;20571;-73
2022/05/18 08:58:51;;;;;;;10.60;8.63;;;;;;;18.99;74.02;99325.97;5035352;28;20029;-74
2022/05/18 09:01:22;;;;;;;12.65;8.70;;;;;;;19.02;74.81;99338.59;5030655;28;20381;-74
2022/05/18 09:04:20;;;;;;;15.77;9.88;;;;;;;19.06;77.15;99337.41;5029909;28;20033;-70
2022/05/18 09:06:51;;;;;;;12.57;9.43;;;;;;;19.21;77.28;99335.47;5002866;28;20492;-73
2022/05/18 09:12:12;;;;;;;10.77;7.43;;;;;;;18.97;76.50;99344.59;5030921;28;20108;-75
2022/05/18 09:14:41;;;;;;;11.35;7.00;;;;;;;18.83;76.66;99346.16;5030814;28;20407;-76
2022/05/18 09:17:16;;;;;;;7.93;6.47;;;;;;;18.83;76.41;99348.97;5029286;28;20017;-76
2022/05/18 09:19:53;;;;;;;8.27;6.25;;;;;;;18.86;75.68;99353.84;5029376;28;20032;-77
2022/05/18 09:22:27;;;;;;;8.45;6.32;;;;;;;18.90;76.45;99351.84;5028166;28;20467;-76
2022/05/18 09:25:33;;;;;;;8.55;6.43;;;;;;;18.83;77.67;99350.97;5029422;28;20092;-77
2022/05/18 09:28:14;;;;;;;6.43;5.65;;;;;;;18.74;75.34;99357.00;5029081;28;20103;-75
2022/05/18 09:31:09;;;;;;;7.10;5.05;;;;;;;18.78;74.92;99353.00;5029067;28;20029;-75
2022/05/18 09:33:43;;;;;;;8.32;4.93;;;;;;;18.85;74.45;99340.06;5029544;28;20033;-76
2022/05/18 09:36:33;;;;;;;9.02;4.82;;;;;;;18.94;73.86;99344.19;5026816;28;20075;-75
2022/05/18 09:39:11;;;;;;;6.05;4.35;;;;;;;19.00;74.59;99341.00;5026661;28;20396;-75
2022/05/18 09:41:47;;;;;;;6.05;4.82;;;;;;;18.94;74.61;99343.38;5013172;28;20117;-77
2022/05/18 09:44:39;;;;;;;4.47;4.07;;;;;;;19.08;74.53;99334.97;5023011;28;20392;-77
2022/05/18 09:47:06;;;;;;;7.15;4.63;;;;;;;19.09;73.76;99332.97;5023347;28;20052;-77
2022/05/18 09:49:40;;;;;;;7.18;4.38;;;;;;;19.26;73.02;99337.09;5028530;28;20392;-76
2022/05/18 09:52:06;;;;;;;4.97;4.38;;;;;;;19.27;73.27;99318.88;5025072;28;20029;-75
2022/05/18 09:54:34;;;;;;;4.72;3.85;;;;;;;19.41;73.65;99337.97;5022937;28;20025;-75
2022/05/18 09:57:10;;;;;;;3.72;2.92;;;;;;;19.49;73.53;99333.16;5030541;28;20026;-74
2022/05/18 09:59:41;;;;;;;3.72;3.17;;;;;;;19.52;72.75;99326.66;5027893;28;20556;-75
2022/05/18 10:07:52;;;;;;;3.60;3.30;;;;;;;19.84;73.28;99327.97;5031561;28;20500;-74
2022/05/18 10:10:29;;;;;;;4.43;3.53;;;;;;;19.89;72.25;99327.56;5031073;28;20088;-75
2022/05/18 10:12:54;;;;;;;5.45;4.63;;;;;;;20.07;72.54;99327.63;5030598;28;20136;-74
2022/05/18 10:15:26;;;;;;;4.20;3.80;;;;;;;20.00;72.46;99317.06;5030043;28;20518;-74
2022/05/18 10:17:57;;;;;;;7.28;3.85;;;;;;;20.12;71.05;99323.56;5027728;28;20114;-74
2022/05/18 10:20:33;;;;;;;4.72;3.85;;;;;;;20.29;69.64;99319.97;5030296;28;20040;-74
2022/05/18 10:23:01;;;;;;;4.20;3.72;;;;;;;20.48;69.67;99317.91;5029538;28;20102;-74
2022/05/18 10:25:47;;;;;;;5.35;4.05;;;;;;;20.50;69.74;99321.16;5025947;28;20029;-73
2022/05/18 10:28:29;;;;;;;5.20;4.35;;;;;;;20.52;70.97;99318.72;5029038;28;20033;-74
2022/05/18 10:31:02;;;;;;;4.47;4.07;;;;;;;20.66;69.34;99317.88;5031310;28;20080;-73
2022/05/18 10:33:33;;;;;;;6.47;4.50;;;;;;;20.71;65.61;99320.34;5019906;28;20124;-74
2022/05/18 10:36:14;;;;;;;13.15;5.40;;;;;;;20.55;64.00;99317.91;5029132;28;20077;-73
2022/05/18 10:38:59;;;;;;;5.53;4.25;;;;;;;20.46;64.50;99311.81;5030226;28;20086;-73
2022/05/18 10:41:36;;;;;;;5.95;4.55;;;;;;;20.60;63.51;99314.66;5021465;28;20120;-73
2022/05/18 10:44:12;;;;;;;8.52;4.97;;;;;;;20.70;63.80;99317.88;5021578;28;20456;-73
2022/05/18 10:46:46;;;;;;;7.75;4.70;;;;;;;20.61;63.99;99316.25;5029023;28;20036;-73
2022/05/18 10:49:32;;;;;;;5.55;3.92;;;;;;;20.68;63.98;99306.91;5029530;28;20052;-74
2022/05/18 10:52:17;;;;;;;8.88;4.40;;;;;;;20.60;62.26;99303.28;5020666;28;20507;-73
2022/05/18 10:54:56;;;;;;;10.77;4.75;;;;;;;20.62;62.14;99306.53;5022900;28;20036;-73
2022/05/18 10:57:33;;;;;;;4.53;4.00;;;;;;;20.68;60.36;99306.13;5023791;28;20117;-73
2022/05/18 11:00:02;;;;;;;5.40;4.50;;;;;;;20.62;59.40;99297.22;5025107;28;20058;-73
2022/05/18 11:02:28;;;;;;;8.13;4.70;;;;;;;20.70;61.23;99298.81;5029070;28;20034;-73
2022/05/18 11:05:15;;;;;;;5.85;4.25;;;;;;;20.82;60.82;99303.28;5028179;28;20506;-73
2022/05/18 11:07:42;;;;;;;13.32;5.85;;;;;;;20.77;61.14;99290.25;5030172;28;20199;-73
2022/05/18 11:10:08;;;;;;;5.05;3.42;;;;;;;20.79;59.07;99295.56;5030720;28;20018;-73
2022/05/18 11:12:43;;;;;;;5.95;4.05;;;;;;;20.75;59.68;99306.09;5029405;28;20036;-73
2022/05/18 11:15:39;;;;;;;4.78;4.05;;;;;;;20.79;58.53;99306.09;5041612;28;20100;-73
2022/05/18 11:18:54;;;;;;;10.55;4.00;;;;;;;20.86;59.42;99312.59;5024332;28;20542;-73
2022/05/18 11:21:37;;;;;;;6.55;4.68;;;;;;;20.99;58.38;99303.63;4997375;28;20053;-73
2022/05/18 11:24:10;;;;;;;7.97;5.15;;;;;;;20.99;56.73;99312.16;5026806;28;20095;-73
2022/05/18 11:27:07;;;;;;;7.72;5.50;;;;;;;20.93;57.76;99310.97;5027398;28;20022;-73
2022/05/18 11:30:08;;;;;;;6.07;4.95;;;;;;;20.95;57.72;99322.75;4999994;28;20492;-73
2022/05/18 11:32:55;;;;;;;8.93;5.05;;;;;;;20.96;57.63;99319.50;5027735;28;20025;-73
2022/05/18 11:35:40;;;;;;;8.25;5.28;;;;;;;20.96;57.46;99325.19;5028444;28;20034;-73
2022/05/18 11:38:20;;;;;;;9.18;5.88;;;;;;;20.93;58.66;99322.34;5021418;28;20072;-73
2022/05/18 11:41:09;;;;;;;9.77;5.50;;;;;;;20.99;59.41;99321.50;5020206;28;20561;-73
2022/05/18 11:43:53;;;;;;;9.70;5.50;;;;;;;20.96;59.41;99318.69;5026716;28;20401;-73
2022/05/18 11:46:40;;;;;;;8.80;5.40;;;;;;;21.06;59.27;99317.00;5024174;28;20091;-73
2022/05/18 11:49:27;;;;;;;8.65;4.95;;;;;;;21.09;58.11;99327.59;5032860;28;20025;-73
2022/05/18 11:52:34;;;;;;;6.10;4.93;;;;;;;21.09;59.88;99321.91;5033557;28;20026;-73
2022/05/18 11:55:28;;;;;;;7.82;5.22;;;;;;;21.06;60.03;99334.91;5033056;28;20021;-73
2022/05/18 11:58:06;;;;;;;15.95;5.47;;;;;;;20.91;61.09;99348.31;5019193;28;20037;-73
2022/05/18 12:01:13;;;;;;;9.82;3.95;;;;;;;19.69;59.51;99364.00;5030910;28;20029;-71
2022/05/18 12:04:03;;;;;;;8.55;3.38;;;;;;;19.15;62.51;99375.91;5029531;28;20503;-71
2022/05/18 12:06:40;;;;;;;6.55;3.80;;;;;;;18.84;66.17;99384.59;5032226;28;20419;-73
2022/05/18 12:09:32;;;;;;;14.10;4.57;;;;;;;18.87;68.62;99389.47;5029157;28;20021;-72